sensor_id;sensor_type;location;lat;lon;timestamp;P1;durP1;ratioP1;P2;durP2;ratioP2
46463;SDS011;32161;48.148;-1.554;2022-12-28T00:01:14;7.18;;;1.42;;
46463;SDS011;32161;48.148;-1.554;2022-12-28T00:03:45;7.55;;;1.67;;
46463;SDS011;32161;48.148;-1.554;2022-12-28T00:06:14;7.63;;;1.50;;
46463;SDS011;32161;48.148;-1.554;2022-12-28T00:08:42;11.00;;;2.85;;
46463;SDS011;32161;48.148;-1.554;2022-12-28T00:11:10;8.82;;;1.80;;
46463;SDS011;32161;48.148;-1.554;2022-12-28T00:13:41;7.80;;;2.22;;
46463;SDS011;32161;48.148;-1.554;2022-12-28T00:16:09;10.63;;;2.67;;
46463;SDS011;32161;48.148;-1.554;2022-12-28T00:18:49;12.75;;;1.30;;
46463;SDS011;32161;48.148;-1.554;2022-12-28T00:21:17;17.23;;;2.25;;
46463;SDS011;32161;48.148;-1.554;2022-12-28T00:23:47;13.82;;;1.75;;
46463;SDS011;32161;48.148;-1.554;2022-12-28T00:28:45;10.13;;;2.95;;
46463;SDS011;32161;48.148;-1.554;2022-12-28T00:31:13;9.32;;;1.55;;
46463;SDS011;32161;48.148;-1.554;2022-12-28T00:33:41;8.65;;;1.35;;
46463;SDS011;32161;48.148;-1.554;2022-12-28T00:36:09;8.82;;;1.10;;
46463;SDS011;32161;48.148;-1.554;2022-12-28T00:38:39;5.95;;;1.42;;
46463;SDS011;32161;48.148;-1.554;2022-12-28T00:41:07;10.20;;;2.42;;
46463;SDS011;32161;48.148;-1.554;2022-12-28T00:43:37;9.40;;;1.77;;
46463;SDS011;32161;48.148;-1.554;2022-12-28T00:46:05;12.60;;;2.53;;
46463;SDS011;32161;48.148;-1.554;2022-12-28T00:48:32;9.65;;;1.73;;
46463;SDS011;32161;48.148;-1.554;2022-12-28T00:51:00;9.23;;;1.30;;
46463;SDS011;32161;48.148;-1.554;2022-12-28T00:53:29;8.68;;;1.48;;
46463;SDS011;32161;48.148;-1.554;2022-12-28T00:56:03;10.32;;;1.73;;
46463;SDS011;32161;48.148;-1.554;2022-12-28T00:58:32;9.52;;;1.50;;
46463;SDS011;32161;48.148;-1.554;2022-12-28T01:01:01;10.02;;;2.33;;
46463;SDS011;32161;48.148;-1.554;2022-12-28T01:03:29;12.10;;;1.95;;
46463;SDS011;32161;48.148;-1.554;2022-12-28T01:05:57;10.35;;;2.33;;
46463;SDS011;32161;48.148;-1.554;2022-12-28T01:08:25;6.63;;;1.67;;
46463;SDS011;32161;48.148;-1.554;2022-12-28T01:10:52;8.48;;;1.80;;
46463;SDS011;32161;48.148;-1.554;2022-12-28T01:13:20;11.55;;;2.38;;
46463;SDS011;32161;48.148;-1.554;2022-12-28T01:15:48;19.00;;;3.80;;
46463;SDS011;32161;48.148;-1.554;2022-12-28T01:18:17;13.00;;;2.90;;
46463;SDS011;32161;48.148;-1.554;2022-12-28T01:20:44;8.07;;;1.45;;
46463;SDS011;32161;48.148;-1.554;2022-12-28T01:23:12;6.65;;;1.42;;
46463;SDS011;32161;48.148;-1.554;2022-12-28T01:25:39;10.25;;;1.50;;
46463;SDS011;32161;48.148;-1.554;2022-12-28T01:28:07;8.07;;;1.60;;
46463;SDS011;32161;48.148;-1.554;2022-12-28T01:30:34;7.22;;;1.80;;
46463;SDS011;32161;48.148;-1.554;2022-12-28T01:33:02;17.17;;;1.75;;
46463;SDS011;32161;48.148;-1.554;2022-12-28T01:35:31;11.75;;;1.52;;
46463;SDS011;32161;48.148;-1.554;2022-12-28T01:37:58;9.10;;;1.40;;
46463;SDS011;32161;48.148;-1.554;2022-12-28T01:40:26;12.73;;;2.00;;
46463;SDS011;32161;48.148;-1.554;2022-12-28T01:42:53;8.02;;;1.35;;
46463;SDS011;32161;48.148;-1.554;2022-12-28T01:45:21;4.97;;;1.55;;
46463;SDS011;32161;48.148;-1.554;2022-12-28T01:47:49;8.07;;;1.92;;
46463;SDS011;32161;48.148;-1.554;2022-12-28T01:50:21;10.60;;;1.90;;
46463;SDS011;32161;48.148;-1.554;2022-12-28T01:52:54;12.50;;;1.45;;
46463;SDS011;32161;48.148;-1.554;2022-12-28T01:55:26;12.90;;;2.80;;
46463;SDS011;32161;48.148;-1.554;2022-12-28T01:57:57;12.27;;;1.48;;
46463;SDS011;32161;48.148;-1.554;2022-12-28T02:00:29;10.95;;;1.92;;
46463;SDS011;32161;48.148;-1.554;2022-12-28T02:02:59;13.52;;;1.58;;
46463;SDS011;32161;48.148;-1.554;2022-12-28T02:05:31;9.32;;;2.40;;
46463;SDS011;32161;48.148;-1.554;2022-12-28T02:08:04;11.18;;;1.60;;
46463;SDS011;32161;48.148;-1.554;2022-12-28T02:10:37;12.82;;;1.35;;
46463;SDS011;32161;48.148;-1.554;2022-12-28T02:13:06;9.48;;;1.45;;
46463;SDS011;32161;48.148;-1.554;2022-12-28T02:15:34;13.63;;;1.80;;
46463;SDS011;32161;48.148;-1.554;2022-12-28T02:18:02;11.00;;;1.65;;
46463;SDS011;32161;48.148;-1.554;2022-12-28T02:20:32;8.95;;;1.55;;
46463;SDS011;32161;48.148;-1.554;2022-12-28T02:23:26;9.90;;;1.85;;
46463;SDS011;32161;48.148;-1.554;2022-12-28T02:29:36;7.97;;;1.45;;
46463;SDS011;32161;48.148;-1.554;2022-12-28T02:32:33;15.50;;;2.17;;
46463;SDS011;32161;48.148;-1.554;2022-12-28T02:35:17;15.82;;;2.42;;
46463;SDS011;32161;48.148;-1.554;2022-12-28T02:37:55;13.07;;;1.80;;
46463;SDS011;32161;48.148;-1.554;2022-12-28T02:40:29;6.28;;;1.38;;
46463;SDS011;32161;48.148;-1.554;2022-12-28T02:43:03;9.18;;;1.67;;
46463;SDS011;32161;48.148;-1.554;2022-12-28T02:45:36;9.25;;;2.42;;
46463;SDS011;32161;48.148;-1.554;2022-12-28T02:48:25;11.98;;;1.23;;
46463;SDS011;32161;48.148;-1.554;2022-12-28T02:51:23;14.18;;;1.40;;
46463;SDS011;32161;48.148;-1.554;2022-12-28T02:54:18;12.50;;;2.72;;
46463;SDS011;32161;48.148;-1.554;2022-12-28T02:57:37;12.07;;;1.48;;
46463;SDS011;32161;48.148;-1.554;2022-12-28T03:00:28;16.65;;;2.05;;
46463;SDS011;32161;48.148;-1.554;2022-12-28T03:03:11;6.05;;;1.85;;
46463;SDS011;32161;48.148;-1.554;2022-12-28T03:05:51;15.43;;;1.40;;
46463;SDS011;32161;48.148;-1.554;2022-12-28T03:08:43;14.32;;;2.17;;
46463;SDS011;32161;48.148;-1.554;2022-12-28T03:11:22;19.77;;;2.08;;
46463;SDS011;32161;48.148;-1.554;2022-12-28T03:14:00;15.13;;;1.95;;
46463;SDS011;32161;48.148;-1.554;2022-12-28T03:16:35;15.52;;;1.77;;
46463;SDS011;32161;48.148;-1.554;2022-12-28T03:19:18;13.07;;;2.08;;
46463;SDS011;32161;48.148;-1.554;2022-12-28T03:22:07;11.10;;;1.48;;
46463;SDS011;32161;48.148;-1.554;2022-12-28T03:24:54;9.82;;;1.48;;
46463;SDS011;32161;48.148;-1.554;2022-12-28T03:27:41;7.60;;;1.33;;
46463;SDS011;32161;48.148;-1.554;2022-12-28T03:30:27;9.65;;;1.58;;
46463;SDS011;32161;48.148;-1.554;2022-12-28T03:33:17;9.65;;;1.42;;
46463;SDS011;32161;48.148;-1.554;2022-12-28T03:35:47;9.00;;;2.05;;
46463;SDS011;32161;48.148;-1.554;2022-12-28T03:38:22;19.35;;;2.40;;
46463;SDS011;32161;48.148;-1.554;2022-12-28T03:40:59;13.80;;;2.60;;
46463;SDS011;32161;48.148;-1.554;2022-12-28T03:43:34;15.00;;;1.77;;
46463;SDS011;32161;48.148;-1.554;2022-12-28T03:46:12;10.57;;;1.80;;
46463;SDS011;32161;48.148;-1.554;2022-12-28T03:48:46;10.20;;;1.38;;
46463;SDS011;32161;48.148;-1.554;2022-12-28T03:51:18;9.50;;;2.27;;
46463;SDS011;32161;48.148;-1.554;2022-12-28T03:53:48;6.10;;;1.98;;
46463;SDS011;32161;48.148;-1.554;2022-12-28T03:56:16;10.32;;;1.88;;
46463;SDS011;32161;48.148;-1.554;2022-12-28T03:58:46;12.07;;;3.72;;
46463;SDS011;32161;48.148;-1.554;2022-12-28T04:01:14;14.82;;;1.52;;
46463;SDS011;32161;48.148;-1.554;2022-12-28T04:03:42;15.40;;;1.52;;
46463;SDS011;32161;48.148;-1.554;2022-12-28T04:06:11;14.82;;;1.55;;
46463;SDS011;32161;48.148;-1.554;2022-12-28T04:08:40;9.33;;;2.30;;
46463;SDS011;32161;48.148;-1.554;2022-12-28T04:11:08;13.48;;;2.20;;
46463;SDS011;32161;48.148;-1.554;2022-12-28T04:13:37;16.13;;;1.70;;
46463;SDS011;32161;48.148;-1.554;2022-12-28T04:16:05;14.30;;;1.88;;
46463;SDS011;32161;48.148;-1.554;2022-12-28T04:18:36;12.65;;;1.63;;
46463;SDS011;32161;48.148;-1.554;2022-12-28T04:21:04;13.65;;;2.70;;
46463;SDS011;32161;48.148;-1.554;2022-12-28T04:23:33;12.70;;;1.77;;
46463;SDS011;32161;48.148;-1.554;2022-12-28T04:26:01;12.23;;;2.55;;
46463;SDS011;32161;48.148;-1.554;2022-12-28T04:28:32;17.80;;;2.00;;
46463;SDS011;32161;48.148;-1.554;2022-12-28T04:31:00;13.68;;;2.05;;
46463;SDS011;32161;48.148;-1.554;2022-12-28T04:33:30;6.30;;;1.35;;
46463;SDS011;32161;48.148;-1.554;2022-12-28T04:36:02;12.35;;;1.50;;
46463;SDS011;32161;48.148;-1.554;2022-12-28T04:38:32;10.18;;;2.22;;
46463;SDS011;32161;48.148;-1.554;2022-12-28T04:41:01;10.85;;;1.38;;
46463;SDS011;32161;48.148;-1.554;2022-12-28T04:43:30;19.33;;;3.17;;
46463;SDS011;32161;48.148;-1.554;2022-12-28T04:45:58;14.48;;;1.65;;
46463;SDS011;32161;48.148;-1.554;2022-12-28T04:48:29;12.30;;;1.58;;
46463;SDS011;32161;48.148;-1.554;2022-12-28T04:50:59;17.33;;;4.00;;
46463;SDS011;32161;48.148;-1.554;2022-12-28T04:53:36;13.13;;;1.38;;
46463;SDS011;32161;48.148;-1.554;2022-12-28T04:56:05;11.57;;;2.28;;
46463;SDS011;32161;48.148;-1.554;2022-12-28T04:58:34;12.95;;;1.73;;
46463;SDS011;32161;48.148;-1.554;2022-12-28T05:01:02;11.95;;;1.80;;
46463;SDS011;32161;48.148;-1.554;2022-12-28T05:03:30;11.20;;;2.85;;
46463;SDS011;32161;48.148;-1.554;2022-12-28T05:05:59;17.20;;;1.88;;
46463;SDS011;32161;48.148;-1.554;2022-12-28T05:08:27;9.32;;;1.70;;
46463;SDS011;32161;48.148;-1.554;2022-12-28T05:10:59;14.05;;;1.65;;
46463;SDS011;32161;48.148;-1.554;2022-12-28T05:13:27;11.90;;;2.63;;
46463;SDS011;32161;48.148;-1.554;2022-12-28T05:15:59;9.45;;;1.50;;
46463;SDS011;32161;48.148;-1.554;2022-12-28T05:18:27;13.52;;;1.60;;
46463;SDS011;32161;48.148;-1.554;2022-12-28T05:20:58;13.40;;;1.75;;
46463;SDS011;32161;48.148;-1.554;2022-12-28T05:23:27;15.27;;;1.58;;
46463;SDS011;32161;48.148;-1.554;2022-12-28T05:25:55;13.93;;;1.92;;
46463;SDS011;32161;48.148;-1.554;2022-12-28T05:28:24;19.20;;;2.38;;
46463;SDS011;32161;48.148;-1.554;2022-12-28T05:30:57;12.38;;;1.60;;
46463;SDS011;32161;48.148;-1.554;2022-12-28T05:33:26;12.45;;;2.08;;
46463;SDS011;32161;48.148;-1.554;2022-12-28T05:35:54;9.10;;;1.15;;
46463;SDS011;32161;48.148;-1.554;2022-12-28T05:38:22;16.08;;;2.03;;
46463;SDS011;32161;48.148;-1.554;2022-12-28T05:40:50;9.15;;;1.90;;
46463;SDS011;32161;48.148;-1.554;2022-12-28T05:43:17;13.77;;;1.48;;
46463;SDS011;32161;48.148;-1.554;2022-12-28T05:45:46;11.02;;;1.75;;
46463;SDS011;32161;48.148;-1.554;2022-12-28T05:48:14;12.55;;;2.00;;
46463;SDS011;32161;48.148;-1.554;2022-12-28T05:50:41;11.52;;;1.60;;
46463;SDS011;32161;48.148;-1.554;2022-12-28T05:53:09;15.40;;;1.83;;
46463;SDS011;32161;48.148;-1.554;2022-12-28T05:55:36;14.43;;;1.90;;
46463;SDS011;32161;48.148;-1.554;2022-12-28T05:58:04;14.75;;;1.88;;
46463;SDS011;32161;48.148;-1.554;2022-12-28T06:00:33;10.90;;;2.50;;
46463;SDS011;32161;48.148;-1.554;2022-12-28T06:03:02;19.17;;;2.00;;
46463;SDS011;32161;48.148;-1.554;2022-12-28T06:05:29;9.27;;;1.80;;
46463;SDS011;32161;48.148;-1.554;2022-12-28T06:07:57;13.07;;;2.03;;
46463;SDS011;32161;48.148;-1.554;2022-12-28T06:10:24;19.75;;;4.55;;
46463;SDS011;32161;48.148;-1.554;2022-12-28T06:12:52;9.80;;;1.48;;
46463;SDS011;32161;48.148;-1.554;2022-12-28T06:15:19;15.25;;;2.28;;
46463;SDS011;32161;48.148;-1.554;2022-12-28T06:17:47;17.60;;;1.92;;
46463;SDS011;32161;48.148;-1.554;2022-12-28T06:22:47;13.50;;;3.67;;
46463;SDS011;32161;48.148;-1.554;2022-12-28T06:25:15;11.32;;;1.83;;
46463;SDS011;32161;48.148;-1.554;2022-12-28T06:27:43;12.82;;;1.60;;
46463;SDS011;32161;48.148;-1.554;2022-12-28T06:30:11;12.50;;;1.60;;
46463;SDS011;32161;48.148;-1.554;2022-12-28T06:32:39;13.35;;;1.67;;
46463;SDS011;32161;48.148;-1.554;2022-12-28T06:35:07;13.15;;;2.47;;
46463;SDS011;32161;48.148;-1.554;2022-12-28T06:37:36;15.60;;;2.22;;
46463;SDS011;32161;48.148;-1.554;2022-12-28T06:40:04;14.82;;;1.63;;
46463;SDS011;32161;48.148;-1.554;2022-12-28T06:42:33;17.35;;;1.88;;
46463;SDS011;32161;48.148;-1.554;2022-12-28T06:45:00;13.50;;;1.63;;
46463;SDS011;32161;48.148;-1.554;2022-12-28T06:47:28;12.07;;;1.60;;
46463;SDS011;32161;48.148;-1.554;2022-12-28T06:49:57;11.98;;;2.20;;
46463;SDS011;32161;48.148;-1.554;2022-12-28T06:52:25;11.55;;;1.63;;
46463;SDS011;32161;48.148;-1.554;2022-12-28T06:54:54;12.52;;;1.48;;
46463;SDS011;32161;48.148;-1.554;2022-12-28T06:57:21;7.70;;;1.63;;
46463;SDS011;32161;48.148;-1.554;2022-12-28T06:59:49;13.13;;;2.22;;
46463;SDS011;32161;48.148;-1.554;2022-12-28T07:02:17;14.88;;;1.73;;
46463;SDS011;32161;48.148;-1.554;2022-12-28T07:04:44;12.85;;;1.58;;
46463;SDS011;32161;48.148;-1.554;2022-12-28T07:07:12;6.60;;;1.15;;
46463;SDS011;32161;48.148;-1.554;2022-12-28T07:09:39;15.00;;;1.67;;
46463;SDS011;32161;48.148;-1.554;2022-12-28T07:12:08;12.68;;;1.63;;
46463;SDS011;32161;48.148;-1.554;2022-12-28T07:14:36;10.52;;;1.50;;
46463;SDS011;32161;48.148;-1.554;2022-12-28T07:17:03;5.35;;;1.33;;
46463;SDS011;32161;48.148;-1.554;2022-12-28T07:19:31;17.50;;;2.08;;
46463;SDS011;32161;48.148;-1.554;2022-12-28T07:21:58;10.75;;;1.73;;
46463;SDS011;32161;48.148;-1.554;2022-12-28T07:24:27;7.90;;;1.38;;
46463;SDS011;32161;48.148;-1.554;2022-12-28T07:26:55;12.82;;;1.92;;
46463;SDS011;32161;48.148;-1.554;2022-12-28T07:29:24;7.97;;;1.65;;
46463;SDS011;32161;48.148;-1.554;2022-12-28T07:31:51;7.85;;;1.63;;
46463;SDS011;32161;48.148;-1.554;2022-12-28T07:34:19;17.15;;;2.17;;
46463;SDS011;32161;48.148;-1.554;2022-12-28T07:36:47;12.15;;;1.65;;
46463;SDS011;32161;48.148;-1.554;2022-12-28T07:39:15;12.15;;;2.10;;
46463;SDS011;32161;48.148;-1.554;2022-12-28T07:41:42;13.32;;;2.05;;
46463;SDS011;32161;48.148;-1.554;2022-12-28T07:44:10;13.07;;;1.60;;
46463;SDS011;32161;48.148;-1.554;2022-12-28T07:46:39;13.68;;;1.70;;
46463;SDS011;32161;48.148;-1.554;2022-12-28T07:49:07;6.47;;;1.50;;
46463;SDS011;32161;48.148;-1.554;2022-12-28T07:51:35;10.60;;;1.65;;
46463;SDS011;32161;48.148;-1.554;2022-12-28T07:54:04;8.85;;;1.48;;
46463;SDS011;32161;48.148;-1.554;2022-12-28T07:56:32;8.18;;;1.60;;
46463;SDS011;32161;48.148;-1.554;2022-12-28T07:59:01;11.38;;;1.42;;
46463;SDS011;32161;48.148;-1.554;2022-12-28T08:01:31;7.90;;;1.40;;
46463;SDS011;32161;48.148;-1.554;2022-12-28T08:04:03;9.18;;;2.00;;
46463;SDS011;32161;48.148;-1.554;2022-12-28T08:06:33;12.70;;;2.05;;
46463;SDS011;32161;48.148;-1.554;2022-12-28T08:09:04;6.43;;;2.00;;
46463;SDS011;32161;48.148;-1.554;2022-12-28T08:11:34;9.93;;;2.38;;
46463;SDS011;32161;48.148;-1.554;2022-12-28T08:14:03;15.80;;;1.80;;
46463;SDS011;32161;48.148;-1.554;2022-12-28T08:16:33;13.52;;;1.95;;
46463;SDS011;32161;48.148;-1.554;2022-12-28T08:19:04;11.70;;;1.90;;
46463;SDS011;32161;48.148;-1.554;2022-12-28T08:21:34;12.80;;;1.60;;
46463;SDS011;32161;48.148;-1.554;2022-12-28T08:24:04;12.65;;;1.75;;
46463;SDS011;32161;48.148;-1.554;2022-12-28T08:26:33;12.90;;;1.58;;
46463;SDS011;32161;48.148;-1.554;2022-12-28T08:29:04;6.37;;;1.20;;
46463;SDS011;32161;48.148;-1.554;2022-12-28T08:31:34;4.10;;;1.20;;
46463;SDS011;32161;48.148;-1.554;2022-12-28T08:34:08;8.63;;;1.40;;
46463;SDS011;32161;48.148;-1.554;2022-12-28T08:36:39;9.02;;;2.72;;
46463;SDS011;32161;48.148;-1.554;2022-12-28T08:39:07;9.45;;;1.20;;
46463;SDS011;32161;48.148;-1.554;2022-12-28T08:41:35;14.07;;;2.35;;
46463;SDS011;32161;48.148;-1.554;2022-12-28T08:44:03;10.93;;;1.92;;
46463;SDS011;32161;48.148;-1.554;2022-12-28T08:46:32;18.55;;;2.55;;
46463;SDS011;32161;48.148;-1.554;2022-12-28T08:49:01;12.18;;;1.80;;
46463;SDS011;32161;48.148;-1.554;2022-12-28T08:51:31;6.13;;;1.65;;
46463;SDS011;32161;48.148;-1.554;2022-12-28T08:54:04;8.77;;;1.80;;
46463;SDS011;32161;48.148;-1.554;2022-12-28T08:56:33;10.82;;;1.75;;
46463;SDS011;32161;48.148;-1.554;2022-12-28T08:59:02;8.23;;;1.77;;
46463;SDS011;32161;48.148;-1.554;2022-12-28T09:01:32;9.80;;;2.38;;
46463;SDS011;32161;48.148;-1.554;2022-12-28T09:04:01;10.30;;;1.70;;
46463;SDS011;32161;48.148;-1.554;2022-12-28T09:06:31;11.55;;;2.40;;
46463;SDS011;32161;48.148;-1.554;2022-12-28T09:09:02;4.22;;;1.38;;
46463;SDS011;32161;48.148;-1.554;2022-12-28T09:11:31;10.07;;;1.60;;
46463;SDS011;32161;48.148;-1.554;2022-12-28T09:14:00;11.57;;;1.83;;
46463;SDS011;32161;48.148;-1.554;2022-12-28T09:16:28;15.50;;;1.60;;
46463;SDS011;32161;48.148;-1.554;2022-12-28T09:18:57;13.70;;;2.05;;
46463;SDS011;32161;48.148;-1.554;2022-12-28T09:21:27;14.57;;;2.17;;
46463;SDS011;32161;48.148;-1.554;2022-12-28T09:23:59;8.05;;;1.65;;
46463;SDS011;32161;48.148;-1.554;2022-12-28T09:26:28;13.40;;;2.72;;
46463;SDS011;32161;48.148;-1.554;2022-12-28T09:28:58;10.05;;;1.88;;
46463;SDS011;32161;48.148;-1.554;2022-12-28T09:31:28;14.07;;;2.30;;
46463;SDS011;32161;48.148;-1.554;2022-12-28T09:34:01;14.55;;;2.90;;
46463;SDS011;32161;48.148;-1.554;2022-12-28T09:36:29;13.75;;;2.13;;
46463;SDS011;32161;48.148;-1.554;2022-12-28T09:39:00;11.48;;;1.83;;
46463;SDS011;32161;48.148;-1.554;2022-12-28T09:41:30;5.13;;;2.08;;
46463;SDS011;32161;48.148;-1.554;2022-12-28T09:44:16;14.45;;;2.45;;
46463;SDS011;32161;48.148;-1.554;2022-12-28T09:47:09;18.17;;;2.10;;
46463;SDS011;32161;48.148;-1.554;2022-12-28T09:49:45;9.32;;;1.60;;
46463;SDS011;32161;48.148;-1.554;2022-12-28T09:52:27;15.80;;;2.15;;
46463;SDS011;32161;48.148;-1.554;2022-12-28T09:55:00;9.93;;;1.90;;
46463;SDS011;32161;48.148;-1.554;2022-12-28T09:57:37;11.50;;;2.05;;
46463;SDS011;32161;48.148;-1.554;2022-12-28T10:00:14;16.08;;;2.38;;
46463;SDS011;32161;48.148;-1.554;2022-12-28T10:02:45;14.52;;;1.95;;
46463;SDS011;32161;48.148;-1.554;2022-12-28T10:05:18;14.38;;;1.88;;
46463;SDS011;32161;48.148;-1.554;2022-12-28T10:07:48;18.85;;;2.40;;
46463;SDS011;32161;48.148;-1.554;2022-12-28T10:10:18;13.15;;;1.90;;
46463;SDS011;32161;48.148;-1.554;2022-12-28T10:12:48;15.68;;;2.90;;
46463;SDS011;32161;48.148;-1.554;2022-12-28T10:15:17;17.27;;;4.03;;
46463;SDS011;32161;48.148;-1.554;2022-12-28T10:17:47;12.70;;;2.22;;
46463;SDS011;32161;48.148;-1.554;2022-12-28T10:20:15;15.45;;;2.47;;
46463;SDS011;32161;48.148;-1.554;2022-12-28T10:22:47;14.30;;;2.35;;
46463;SDS011;32161;48.148;-1.554;2022-12-28T10:25:21;16.02;;;2.17;;
46463;SDS011;32161;48.148;-1.554;2022-12-28T10:27:50;10.63;;;2.20;;
46463;SDS011;32161;48.148;-1.554;2022-12-28T10:30:19;16.08;;;3.08;;
46463;SDS011;32161;48.148;-1.554;2022-12-28T10:32:51;14.38;;;2.08;;
46463;SDS011;32161;48.148;-1.554;2022-12-28T10:35:22;7.45;;;2.08;;
46463;SDS011;32161;48.148;-1.554;2022-12-28T10:37:56;12.25;;;2.35;;
46463;SDS011;32161;48.148;-1.554;2022-12-28T10:40:29;13.10;;;2.30;;
46463;SDS011;32161;48.148;-1.554;2022-12-28T10:43:00;18.85;;;2.50;;
46463;SDS011;32161;48.148;-1.554;2022-12-28T10:45:32;17.67;;;3.42;;
46463;SDS011;32161;48.148;-1.554;2022-12-28T10:48:06;16.13;;;3.28;;
46463;SDS011;32161;48.148;-1.554;2022-12-28T10:50:41;15.15;;;2.65;;
46463;SDS011;32161;48.148;-1.554;2022-12-28T10:53:17;11.40;;;2.38;;
46463;SDS011;32161;48.148;-1.554;2022-12-28T10:55:59;12.75;;;2.25;;
46463;SDS011;32161;48.148;-1.554;2022-12-28T10:58:30;19.70;;;3.47;;
46463;SDS011;32161;48.148;-1.554;2022-12-28T11:01:00;10.15;;;1.88;;
46463;SDS011;32161;48.148;-1.554;2022-12-28T11:03:30;11.13;;;2.45;;
46463;SDS011;32161;48.148;-1.554;2022-12-28T11:08:39;10.07;;;1.95;;
46463;SDS011;32161;48.148;-1.554;2022-12-28T11:11:15;13.63;;;2.13;;
46463;SDS011;32161;48.148;-1.554;2022-12-28T11:13:47;15.18;;;3.20;;
46463;SDS011;32161;48.148;-1.554;2022-12-28T11:16:20;13.52;;;2.97;;
46463;SDS011;32161;48.148;-1.554;2022-12-28T11:18:48;13.98;;;2.10;;
46463;SDS011;32161;48.148;-1.554;2022-12-28T11:21:17;11.43;;;2.28;;
46463;SDS011;32161;48.148;-1.554;2022-12-28T11:23:49;12.02;;;1.67;;
46463;SDS011;32161;48.148;-1.554;2022-12-28T11:26:17;17.87;;;2.63;;
46463;SDS011;32161;48.148;-1.554;2022-12-28T11:28:47;13.77;;;2.35;;
46463;SDS011;32161;48.148;-1.554;2022-12-28T11:31:20;19.80;;;3.13;;
46463;SDS011;32161;48.148;-1.554;2022-12-28T11:33:53;12.43;;;2.10;;
46463;SDS011;32161;48.148;-1.554;2022-12-28T11:36:26;11.27;;;2.30;;
46463;SDS011;32161;48.148;-1.554;2022-12-28T11:38:57;16.38;;;2.60;;
46463;SDS011;32161;48.148;-1.554;2022-12-28T11:41:44;15.63;;;2.20;;
46463;SDS011;32161;48.148;-1.554;2022-12-28T11:44:22;5.93;;;1.70;;
46463;SDS011;32161;48.148;-1.554;2022-12-28T11:47:18;17.05;;;2.80;;
46463;SDS011;32161;48.148;-1.554;2022-12-28T11:53:22;10.07;;;2.20;;
46463;SDS011;32161;48.148;-1.554;2022-12-28T11:56:21;12.43;;;2.58;;
46463;SDS011;32161;48.148;-1.554;2022-12-28T12:01:50;15.75;;;2.05;;
46463;SDS011;32161;48.148;-1.554;2022-12-28T12:07:20;9.95;;;2.10;;
46463;SDS011;32161;48.148;-1.554;2022-12-28T12:10:11;10.98;;;1.98;;
46463;SDS011;32161;48.148;-1.554;2022-12-28T12:13:32;11.73;;;2.38;;
46463;SDS011;32161;48.148;-1.554;2022-12-28T12:16:14;12.25;;;2.75;;
46463;SDS011;32161;48.148;-1.554;2022-12-28T12:18:50;7.65;;;2.08;;
46463;SDS011;32161;48.148;-1.554;2022-12-28T12:21:21;6.28;;;1.50;;
46463;SDS011;32161;48.148;-1.554;2022-12-28T12:24:00;8.73;;;2.78;;
46463;SDS011;32161;48.148;-1.554;2022-12-28T12:26:51;8.68;;;2.08;;
46463;SDS011;32161;48.148;-1.554;2022-12-28T12:29:27;10.35;;;1.75;;
46463;SDS011;32161;48.148;-1.554;2022-12-28T12:32:04;5.07;;;1.67;;
46463;SDS011;32161;48.148;-1.554;2022-12-28T12:34:39;10.23;;;2.92;;
46463;SDS011;32161;48.148;-1.554;2022-12-28T12:37:22;13.93;;;3.28;;
46463;SDS011;32161;48.148;-1.554;2022-12-28T12:40:19;9.25;;;2.05;;
46463;SDS011;32161;48.148;-1.554;2022-12-28T12:43:26;8.38;;;2.25;;
46463;SDS011;32161;48.148;-1.554;2022-12-28T12:49:20;11.18;;;2.33;;
46463;SDS011;32161;48.148;-1.554;2022-12-28T12:52:13;6.68;;;1.52;;
46463;SDS011;32161;48.148;-1.554;2022-12-28T12:54:57;7.00;;;1.63;;
46463;SDS011;32161;48.148;-1.554;2022-12-28T12:57:42;7.18;;;1.58;;
46463;SDS011;32161;48.148;-1.554;2022-12-28T13:00:19;5.97;;;1.60;;
46463;SDS011;32161;48.148;-1.554;2022-12-28T13:02:57;5.88;;;1.60;;
46463;SDS011;32161;48.148;-1.554;2022-12-28T13:05:53;4.88;;;1.70;;
46463;SDS011;32161;48.148;-1.554;2022-12-28T13:08:24;7.20;;;2.10;;
46463;SDS011;32161;48.148;-1.554;2022-12-28T13:10:58;7.38;;;1.67;;
46463;SDS011;32161;48.148;-1.554;2022-12-28T13:13:27;6.32;;;1.35;;
46463;SDS011;32161;48.148;-1.554;2022-12-28T13:16:00;4.88;;;2.10;;
46463;SDS011;32161;48.148;-1.554;2022-12-28T13:18:32;7.13;;;2.10;;
46463;SDS011;32161;48.148;-1.554;2022-12-28T13:21:00;3.80;;;1.58;;
46463;SDS011;32161;48.148;-1.554;2022-12-28T13:23:30;5.32;;;1.90;;
46463;SDS011;32161;48.148;-1.554;2022-12-28T13:25:59;6.00;;;1.52;;
46463;SDS011;32161;48.148;-1.554;2022-12-28T13:28:29;5.13;;;1.45;;
46463;SDS011;32161;48.148;-1.554;2022-12-28T13:31:03;7.00;;;1.20;;
46463;SDS011;32161;48.148;-1.554;2022-12-28T13:33:36;3.72;;;1.38;;
46463;SDS011;32161;48.148;-1.554;2022-12-28T13:36:14;6.15;;;1.75;;
46463;SDS011;32161;48.148;-1.554;2022-12-28T13:38:44;6.28;;;1.55;;
46463;SDS011;32161;48.148;-1.554;2022-12-28T13:41:17;4.65;;;1.60;;
46463;SDS011;32161;48.148;-1.554;2022-12-28T13:46:46;3.88;;;0.95;;
46463;SDS011;32161;48.148;-1.554;2022-12-28T13:49:20;5.57;;;1.17;;
46463;SDS011;32161;48.148;-1.554;2022-12-28T13:51:49;3.22;;;1.27;;
46463;SDS011;32161;48.148;-1.554;2022-12-28T13:54:17;2.25;;;0.85;;
46463;SDS011;32161;48.148;-1.554;2022-12-28T13:56:44;3.47;;;1.15;;
46463;SDS011;32161;48.148;-1.554;2022-12-28T13:59:13;3.67;;;1.55;;
46463;SDS011;32161;48.148;-1.554;2022-12-28T14:01:43;5.03;;;1.33;;
46463;SDS011;32161;48.148;-1.554;2022-12-28T14:04:16;2.78;;;1.02;;
46463;SDS011;32161;48.148;-1.554;2022-12-28T14:06:49;4.97;;;1.20;;
46463;SDS011;32161;48.148;-1.554;2022-12-28T14:09:18;2.55;;;1.02;;
46463;SDS011;32161;48.148;-1.554;2022-12-28T14:11:47;2.15;;;1.10;;
46463;SDS011;32161;48.148;-1.554;2022-12-28T14:14:16;2.75;;;0.90;;
46463;SDS011;32161;48.148;-1.554;2022-12-28T14:16:44;2.28;;;0.93;;
46463;SDS011;32161;48.148;-1.554;2022-12-28T14:19:12;2.58;;;1.02;;
46463;SDS011;32161;48.148;-1.554;2022-12-28T14:21:42;1.83;;;0.85;;
46463;SDS011;32161;48.148;-1.554;2022-12-28T14:24:11;2.17;;;0.80;;
46463;SDS011;32161;48.148;-1.554;2022-12-28T14:26:43;1.90;;;0.70;;
46463;SDS011;32161;48.148;-1.554;2022-12-28T14:29:17;1.02;;;0.70;;
46463;SDS011;32161;48.148;-1.554;2022-12-28T14:31:53;2.22;;;0.88;;
46463;SDS011;32161;48.148;-1.554;2022-12-28T14:34:23;4.40;;;0.70;;
46463;SDS011;32161;48.148;-1.554;2022-12-28T14:36:56;2.10;;;0.70;;
46463;SDS011;32161;48.148;-1.554;2022-12-28T14:39:26;0.98;;;0.70;;
46463;SDS011;32161;48.148;-1.554;2022-12-28T14:41:59;2.80;;;0.70;;
46463;SDS011;32161;48.148;-1.554;2022-12-28T14:44:29;1.73;;;0.70;;
46463;SDS011;32161;48.148;-1.554;2022-12-28T14:47:01;1.27;;;0.70;;
46463;SDS011;32161;48.148;-1.554;2022-12-28T14:49:56;2.58;;;0.93;;
46463;SDS011;32161;48.148;-1.554;2022-12-28T14:52:35;5.75;;;1.05;;
46463;SDS011;32161;48.148;-1.554;2022-12-28T14:55:19;2.17;;;0.55;;
46463;SDS011;32161;48.148;-1.554;2022-12-28T14:57:52;2.85;;;0.52;;
46463;SDS011;32161;48.148;-1.554;2022-12-28T15:00:25;1.35;;;0.57;;
46463;SDS011;32161;48.148;-1.554;2022-12-28T15:02:54;0.45;;;0.40;;
46463;SDS011;32161;48.148;-1.554;2022-12-28T15:05:37;2.35;;;0.68;;
46463;SDS011;32161;48.148;-1.554;2022-12-28T15:08:09;1.42;;;0.40;;
46463;SDS011;32161;48.148;-1.554;2022-12-28T15:10:39;1.08;;;0.40;;
46463;SDS011;32161;48.148;-1.554;2022-12-28T15:13:11;1.55;;;0.60;;
46463;SDS011;32161;48.148;-1.554;2022-12-28T15:15:39;1.88;;;0.47;;
46463;SDS011;32161;48.148;-1.554;2022-12-28T15:18:07;2.28;;;0.60;;
46463;SDS011;32161;48.148;-1.554;2022-12-28T15:20:35;2.30;;;0.50;;
46463;SDS011;32161;48.148;-1.554;2022-12-28T15:23:04;0.40;;;0.40;;